Time;durP1;ratioP1;P1;durP2;ratioP2;P2;SDS_P1;SDS_P2;PMS_P1;PMS_P2;Temp;Humidity;BMP_temperature;BMP_pressure;BME280_temperature;BME280_humidity;BME280_pressure;Samples;Min_cycle;Max_cycle;Signal;HPM_P1;HPM_P2
2021/05/21 00:01:58;;;;;;;;;;;;;;;12.71;62.19;100054.47;4433053;32;36163;-74
2021/05/21 00:04:27;;;;;;;;;;;;;;;13.35;60.27;100046.22;4443065;32;32957;-74
2021/05/21 00:06:54;;;;;;;;;;;;;;;12.95;61.60;100038.72;4432589;32;34844;-75
2021/05/21 00:09:22;;;;;;;;;;;;;;;13.06;61.24;100045.66;4453131;32;36525;-74
2021/05/21 00:11:50;;;;;;;;;;;;;;;12.79;62.27;100038.53;4430281;32;33987;-74
2021/05/21 00:14:18;;;;;;;;;;;;;;;12.97;61.71;100034.06;4409987;26;33547;-74
2021/05/21 00:16:46;;;;;;;;;;;;;;;12.72;62.82;100033.94;4429112;32;33278;-74
2021/05/21 00:19:14;;;;;;;;;;;;;;;12.69;63.16;100037.78;4402529;32;34001;-74
2021/05/21 00:21:41;;;;;;;;;;;;;;;12.82;62.88;100029.38;4415227;32;33940;-74
2021/05/21 00:24:08;;;;;;;;;;;;;;;12.45;64.02;100028.66;4401585;32;33188;-73
2021/05/21 00:26:36;;;;;;;;;;;;;;;12.61;63.51;100029.69;4414992;32;33292;-74
2021/05/21 00:29:03;;;;;;;;;;;;;;;12.55;64.19;100035.62;4414703;32;35041;-74
2021/05/21 00:31:31;;;;;;;;;;;;;;;12.62;63.45;100031.34;4415246;32;34371;-74
2021/05/21 00:34:12;;;;;;;;;;;;;;;13.02;62.12;100026.41;4416552;32;33515;-74
2021/05/21 00:36:40;;;;;;;;;;;;;;;13.34;61.11;100032.03;4415543;32;34320;-74
2021/05/21 00:39:07;;;;;;;;;;;;;;;13.47;60.27;100029.78;4414756;32;35799;-74
2021/05/21 00:41:35;;;;;;;;;;;;;;;13.44;60.21;100026.56;4429233;32;33858;-74
2021/05/21 00:44:02;;;;;;;;;;;;;;;13.55;59.85;100029.00;4378007;32;32411;-74
2021/05/21 00:46:30;;;;;;;;;;;;;;;13.60;59.55;100027.50;4415062;32;33315;-74
2021/05/21 00:48:57;;;;;;;;;;;;;;;13.60;59.34;100027.50;4414429;32;35395;-74
2021/05/21 00:51:24;;;;;;;;;;;;;;;13.60;59.34;100030.19;4415057;32;34129;-73
2021/05/21 00:53:52;;;;;;;;;;;;;;;13.63;59.41;100024.53;4414467;32;32962;-74
2021/05/21 00:56:19;;;;;;;;;;;;;;;13.05;61.40;100031.44;4414664;32;34050;-74
2021/05/21 00:58:47;;;;;;;;;;;;;;;12.90;62.08;100032.12;4428583;32;35826;-74
2021/05/21 01:01:16;;;;;;;;;;;;;;;12.85;62.59;100037.09;4415008;32;33871;-74
2021/05/21 01:03:43;;;;;;;;;;;;;;;12.69;63.15;100039.59;4414542;32;33311;-74
2021/05/21 01:06:11;;;;;;;;;;;;;;;12.51;63.93;100036.91;4414431;32;33580;-74
2021/05/21 01:08:39;;;;;;;;;;;;;;;12.52;63.63;100041.25;4414759;32;35282;-74
2021/05/21 01:11:06;;;;;;;;;;;;;;;12.46;64.39;100046.38;4414924;32;35189;-73
2021/05/21 01:13:34;;;;;;;;;;;;;;;12.63;63.71;100042.84;4414489;32;33322;-73
2021/05/21 01:16:02;;;;;;;;;;;;;;;12.38;64.72;100041.75;4414534;32;33896;-73
2021/05/21 01:18:29;;;;;;;;;;;;;;;12.30;64.78;100041.66;4414400;32;34901;-74
2021/05/21 01:20:57;;;;;;;;;;;;;;;12.76;63.08;100041.50;4414310;32;33806;-74
2021/05/21 01:23:25;;;;;;;;;;;;;;;12.31;64.71;100043.38;4428560;32;32696;-73
2021/05/21 01:25:53;;;;;;;;;;;;;;;12.06;65.69;100038.72;4401638;32;33721;-73
2021/05/21 01:28:21;;;;;;;;;;;;;;;12.36;64.85;100048.22;4428388;32;34901;-73
2021/05/21 01:30:49;;;;;;;;;;;;;;;12.16;65.02;100050.19;4401599;32;33885;-74
2021/05/21 01:33:17;;;;;;;;;;;;;;;12.01;65.85;100056.97;4413860;32;31134;-73
2021/05/21 01:35:44;;;;;;;;;;;;;;;11.82;66.75;100057.06;4401316;32;33550;-74
2021/05/21 01:38:13;;;;;;;;;;;;;;;11.87;66.53;100064.63;4401776;32;34389;-73
2021/05/21 01:40:41;;;;;;;;;;;;;;;12.29;65.30;100063.19;4413700;32;34202;-73
2021/05/21 01:43:11;;;;;;;;;;;;;;;12.13;65.87;100063.81;4414131;32;33075;-74
2021/05/21 01:45:39;;;;;;;;;;;;;;;11.87;66.15;100067.28;4428085;32;35190;-74
2021/05/21 01:48:10;;;;;;;;;;;;;;;12.02;65.64;100061.31;4428424;32;34515;-74
2021/05/21 01:50:38;;;;;;;;;;;;;;;12.61;63.45;100053.72;4414081;32;33848;-74
2021/05/21 01:53:10;;;;;;;;;;;;;;;12.46;63.79;100060.53;4413359;32;31613;-74
2021/05/21 01:55:37;;;;;;;;;;;;;;;12.22;64.44;100054.94;4428005;32;34225;-73
2021/05/21 01:58:05;;;;;;;;;;;;;;;12.14;64.88;100056.66;4414057;32;34308;-73
2021/05/21 02:00:32;;;;;;;;;;;;;;;12.03;65.03;100056.84;4400729;32;34304;-73
2021/05/21 02:03:00;;;;;;;;;;;;;;;11.97;65.37;100054.75;4413367;32;33035;-73
2021/05/21 02:05:28;;;;;;;;;;;;;;;11.88;65.86;100060.97;4414094;32;34244;-73
2021/05/21 02:07:55;;;;;;;;;;;;;;;11.89;65.62;100062.62;4414010;32;35069;-73
2021/05/21 02:10:23;;;;;;;;;;;;;;;11.68;66.63;100054.00;4413353;32;35555;-73
2021/05/21 02:12:50;;;;;;;;;;;;;;;12.21;64.84;100050.56;4413389;32;33310;-74
2021/05/21 02:15:18;;;;;;;;;;;;;;;11.94;65.48;100055.91;4413605;32;33321;-73
2021/05/21 02:17:46;;;;;;;;;;;;;;;11.83;65.76;100056.06;4413809;32;35219;-73
2021/05/21 02:20:13;;;;;;;;;;;;;;;11.80;65.96;100058.19;4413743;32;34003;-73
2021/05/21 02:22:41;;;;;;;;;;;;;;;11.88;65.93;100043.16;4427247;32;33768;-73
2021/05/21 02:25:10;;;;;;;;;;;;;;;11.72;66.40;100055.44;4401170;32;33897;-73
2021/05/21 02:27:37;;;;;;;;;;;;;;;11.85;65.84;100056.78;4427820;32;34437;-74
2021/05/21 02:30:05;;;;;;;;;;;;;;;12.09;64.96;100045.59;4413437;32;34668;-73
2021/05/21 02:32:33;;;;;;;;;;;;;;;12.46;63.33;100046.38;4400818;32;32697;-73
2021/05/21 02:35:00;;;;;;;;;;;;;;;12.51;63.10;100052.06;4415687;32;33582;-74
2021/05/21 02:37:28;;;;;;;;;;;;;;;12.66;62.26;100037.25;4403075;32;34232;-73
2021/05/21 02:39:55;;;;;;;;;;;;;;;12.69;62.02;100039.59;4415847;32;34127;-74
2021/05/21 02:42:23;;;;;;;;;;;;;;;12.69;61.90;100044.94;4415582;32;33023;-73
2021/05/21 02:44:51;;;;;;;;;;;;;;;12.34;63.26;100045.72;4415562;32;33995;-74
2021/05/21 02:47:19;;;;;;;;;;;;;;;12.48;62.95;100047.88;4430015;32;35860;-74
2021/05/21 02:49:46;;;;;;;;;;;;;;;12.56;62.24;100045.28;4415955;32;34986;-73
2021/05/21 02:52:14;;;;;;;;;;;;;;;12.41;62.97;100046.81;4429393;32;33156;-74
2021/05/21 02:54:41;;;;;;;;;;;;;;;12.31;63.30;100046.03;4415435;32;34337;-73
2021/05/21 02:57:08;;;;;;;;;;;;;;;12.57;62.42;100046.16;4416088;32;34397;-74
2021/05/21 02:59:36;;;;;;;;;;;;;;;12.65;61.66;100043.56;4416222;32;35035;-73
2021/05/21 03:02:03;;;;;;;;;;;;;;;11.78;64.10;100050.34;4415738;32;33018;-74
2021/05/21 03:04:31;;;;;;;;;;;;;;;11.22;66.05;100051.28;4415717;32;33673;-74
2021/05/21 03:06:58;;;;;;;;;;;;;;;12.21;62.76;100052.41;4429053;32;35075;-74
2021/05/21 03:09:26;;;;;;;;;;;;;;;11.00;65.77;100048.91;4403417;32;34870;-74
2021/05/21 03:11:53;;;;;;;;;;;;;;;11.17;65.30;100053.53;4429189;32;32407;-73
2021/05/21 03:14:20;;;;;;;;;;;;;;;11.86;63.47;100038.94;4402657;32;35476;-74
2021/05/21 03:16:48;;;;;;;;;;;;;;;12.15;62.79;100042.31;4414856;32;33405;-74
2021/05/21 03:19:15;;;;;;;;;;;;;;;12.22;62.27;100043.41;4402677;32;35119;-74
2021/05/21 03:21:43;;;;;;;;;;;;;;;12.31;61.51;100042.50;4428878;32;33406;-74
2021/05/21 03:24:11;;;;;;;;;;;;;;;12.25;61.26;100053.78;4429528;32;33824;-74
2021/05/21 03:26:38;;;;;;;;;;;;;;;12.32;60.79;100049.53;4415611;32;35429;-73
2021/05/21 03:29:06;;;;;;;;;;;;;;;12.17;60.98;100046.53;4402515;32;33571;-74
2021/05/21 03:31:33;;;;;;;;;;;;;;;12.20;61.16;100040.06;4415040;32;32414;-74
2021/05/21 03:34:01;;;;;;;;;;;;;;;11.72;63.13;100047.44;4415687;32;34311;-73
2021/05/21 03:36:29;;;;;;;;;;;;;;;11.88;63.06;100035.16;4429878;32;34890;-73
2021/05/21 03:38:56;;;;;;;;;;;;;;;12.12;61.97;100045.28;4415099;32;34465;-74
2021/05/21 03:41:23;;;;;;;;;;;;;;;12.28;61.38;100053.50;4429304;32;33448;-74
2021/05/21 03:43:51;;;;;;;;;;;;;;;12.28;60.99;100051.66;4429177;32;35200;-74
2021/05/21 03:46:18;;;;;;;;;;;;;;;12.21;61.27;100050.56;4415605;32;34911;-73
2021/05/21 03:48:48;;;;;;;;;;;;;;;12.11;61.94;100047.09;4414879;32;34632;-73
2021/05/21 03:51:18;;;;;;;;;;;;;;;12.01;62.53;100046.31;4415792;32;33290;-74
2021/05/21 03:53:45;;;;;;;;;;;;;;;12.22;62.34;100057.59;4429414;32;34670;-73
2021/05/21 03:56:12;;;;;;;;;;;;;;;12.27;62.07;100055.31;4415404;32;34713;-74
2021/05/21 03:58:40;;;;;;;;;;;;;;;12.37;61.49;100052.59;4415224;32;34170;-73
2021/05/21 04:01:08;;;;;;;;;;;;;;;12.40;61.32;100057.63;4414566;32;32264;-74
2021/05/21 04:03:35;;;;;;;;;;;;;;;12.43;60.91;100046.66;4415317;32;34709;-73
2021/05/21 04:06:03;;;;;;;;;;;;;;;12.37;60.75;100042.75;4414906;32;34513;-74
2021/05/21 04:08:31;;;;;;;;;;;;;;;11.97;62.51;100055.59;4415096;32;35110;-74
2021/05/21 04:10:59;;;;;;;;;;;;;;;11.94;63.12;100061.25;4429353;32;33640;-73
2021/05/21 04:13:26;;;;;;;;;;;;;;;11.56;64.46;100063.97;4414744;32;34716;-74
2021/05/21 04:15:54;;;;;;;;;;;;;;;11.97;63.06;100058.28;4415067;32;34982;-73
2021/05/21 04:18:21;;;;;;;;;;;;;;;11.99;63.04;100058.97;4414900;32;34413;-73
2021/05/21 04:20:49;;;;;;;;;;;;;;;12.26;62.21;100061.63;4415312;32;33762;-73
2021/05/21 04:23:16;;;;;;;;;;;;;;;12.42;61.85;100061.84;4415527;32;34599;-73
2021/05/21 04:25:44;;;;;;;;;;;;;;;12.62;61.27;100057.19;4414920;32;35272;-74
2021/05/21 04:28:14;;;;;;;;;;;;;;;12.62;61.45;100052.72;4402294;32;33682;-74
2021/05/21 04:30:42;;;;;;;;;;;;;;;12.79;61.07;100057.22;4414955;32;35045;-73
2021/05/21 04:33:09;;;;;;;;;;;;;;;12.88;61.00;100053.66;4429630;32;33934;-74
2021/05/21 04:35:37;;;;;;;;;;;;;;;12.71;61.96;100058.97;4415346;32;35888;-74
2021/05/21 04:38:04;;;;;;;;;;;;;;;12.76;62.58;100051.34;4402466;32;33730;-74
2021/05/21 04:40:32;;;;;;;;;;;;;;;12.93;62.10;100054.00;4428671;32;32573;-73
2021/05/21 04:42:59;;;;;;;;;;;;;;;13.12;61.75;100048.53;4427972;32;34874;-74
2021/05/21 04:45:27;;;;;;;;;;;;;;;13.16;62.39;100049.94;4400764;32;35616;-74
2021/05/21 04:47:54;;;;;;;;;;;;;;;13.20;62.84;100050.47;4428930;32;34935;-74
2021/05/21 04:50:22;;;;;;;;;;;;;;;13.19;62.95;100052.28;4414609;32;33323;-73
2021/05/21 04:52:49;;;;;;;;;;;;;;;13.47;62.49;100048.50;4427142;32;34632;-74
2021/05/21 04:55:17;;;;;;;;;;;;;;;13.61;62.36;100047.91;4401638;32;34914;-74
2021/05/21 04:57:49;;;;;;;;;;;;;;;13.49;63.38;100054.50;4397288;32;32857;-74
2021/05/21 05:00:19;;;;;;;;;;;;;;;13.62;63.84;100054.09;4427751;32;33804;-74
2021/05/21 05:02:46;;;;;;;;;;;;;;;13.83;63.72;100057.22;4413270;32;33644;-74
2021/05/21 05:05:13;;;;;;;;;;;;;;;13.99;63.53;100054.66;4413051;32;33588;-74
2021/05/21 05:07:41;;;;;;;;;;;;;;;14.10;63.64;100057.03;4427014;32;34112;-74
2021/05/21 05:10:09;;;;;;;;;;;;;;;14.29;63.42;100048.78;4426443;32;33547;-74
2021/05/21 05:12:37;;;;;;;;;;;;;;;14.31;63.03;100057.50;4412605;32;34919;-74
2021/05/21 05:15:05;;;;;;;;;;;;;;;14.39;62.27;100053.03;4400932;32;36058;-74
2021/05/21 05:17:32;;;;;;;;;;;;;;;14.12;63.24;100055.03;4398546;32;34376;-74
2021/05/21 05:20:00;;;;;;;;;;;;;;;14.62;62.09;100056.78;4413366;32;33062;-74
2021/05/21 05:22:29;;;;;;;;;;;;;;;14.90;61.28;100053.66;4427610;32;33892;-75
2021/05/21 05:24:57;;;;;;;;;;;;;;;14.74;62.05;100052.81;4412805;32;35843;-74
2021/05/21 05:27:24;;;;;;;;;;;;;;;14.97;61.67;100052.00;4413967;32;34811;-74
2021/05/21 05:29:52;;;;;;;;;;;;;;;15.06;61.80;100051.00;4412737;32;33002;-74
2021/05/21 05:32:20;;;;;;;;;;;;;;;15.25;61.53;100055.19;4427394;32;34151;-74
2021/05/21 05:34:48;;;;;;;;;;;;;;;15.52;60.90;100053.03;4399615;32;33466;-74
2021/05/21 05:37:15;;;;;;;;;;;;;;;15.65;60.18;100049.81;4427884;32;34168;-74
2021/05/21 05:39:43;;;;;;;;;;;;;;;15.74;59.31;100060.38;4427918;32;32945;-75
2021/05/21 05:42:10;;;;;;;;;;;;;;;15.74;59.23;100060.38;4425012;32;34013;-75
2021/05/21 05:44:38;;;;;;;;;;;;;;;15.73;59.50;100060.53;4426075;32;34380;-75
2021/05/21 05:47:06;;;;;;;;;;;;;;;16.05;58.08;100063.16;4411208;32;34287;-75
2021/05/21 05:49:33;;;;;;;;;;;;;;;16.04;57.57;100067.66;4427192;32;32916;-75
2021/05/21 05:52:01;;;;;;;;;;;;;;;16.25;57.05;100059.88;4410865;32;34138;-75
2021/05/21 05:54:28;;;;;;;;;;;;;;;15.97;57.59;100073.91;4426783;32;35571;-75
2021/05/21 05:56:56;;;;;;;;;;;;;;;16.25;56.81;100064.41;4411373;32;35512;-74
2021/05/21 05:59:25;;;;;;;;;;;;;;;16.36;56.74;100062.22;4409689;32;33570;-75
2021/05/21 06:01:53;;;;;;;;;;;;;;;16.49;56.32;100062.50;4401428;32;33833;-74
2021/05/21 06:04:21;;;;;;;;;;;;;;;16.57;55.83;100054.41;4399204;32;33497;-75
2021/05/21 06:06:48;;;;;;;;;;;;;;;16.88;54.89;100052.53;4410285;32;34917;-74
2021/05/21 06:09:16;;;;;;;;;;;;;;;16.91;54.48;100059.41;4414637;32;32610;-75
2021/05/21 06:11:44;;;;;;;;;;;;;;;17.01;54.79;100060.84;4427117;32;34965;-75
2021/05/21 06:14:11;;;;;;;;;;;;;;;16.80;54.24;100062.50;4412253;32;35960;-75
2021/05/21 06:16:40;;;;;;;;;;;;;;;17.02;53.61;100053.59;4412532;32;33494;-75
2021/05/21 06:19:08;;;;;;;;;;;;;;;17.09;53.07;100055.41;4401565;32;33776;-76
2021/05/21 06:21:35;;;;;;;;;;;;;;;17.18;53.65;100048.94;4401881;32;35191;-75
2021/05/21 06:24:03;;;;;;;;;;;;;;;17.15;54.15;100043.94;4401327;32;33566;-75
2021/05/21 06:26:44;;;;;;;;;;;;;;;17.52;53.38;100046.69;4428146;32;34378;-75
2021/05/21 06:29:12;;;;;;;;;;;;;;;17.26;54.40;100045.38;4414872;32;33701;-76
2021/05/21 06:31:40;;;;;;;;;;;;;;;17.42;54.04;100046.09;4401354;32;33764;-75
2021/05/21 06:34:08;;;;;;;;;;;;;;;17.68;52.76;100044.66;4410091;32;35151;-76
2021/05/21 06:36:35;;;;;;;;;;;;;;;17.68;53.95;100050.03;4425172;32;33528;-75
2021/05/21 06:39:02;;;;;;;;;;;;;;;17.83;53.74;100055.44;4398991;32;33279;-76
2021/05/21 06:41:30;;;;;;;;;;;;;;;17.87;53.30;100049.50;4408665;32;34144;-76
2021/05/21 06:43:57;;;;;;;;;;;;;;;18.00;53.00;100038.09;4425002;32;34761;-75
2021/05/21 06:46:25;;;;;;;;;;;;;;;18.07;51.80;100045.22;4399434;32;34603;-75
2021/05/21 06:48:53;;;;;;;;;;;;;;;17.74;51.72;100045.78;4410315;32;33516;-75
2021/05/21 06:51:21;;;;;;;;;;;;;;;18.11;52.53;100049.25;4428779;32;33376;-76
2021/05/21 06:53:49;;;;;;;;;;;;;;;18.25;52.11;100047.56;4426680;32;34736;-76
2021/05/21 06:56:16;;;;;;;;;;;;;;;17.87;52.07;100043.31;4397714;32;34758;-75
2021/05/21 06:58:44;;;;;;;;;;;;;;;17.82;51.41;100043.00;4429451;32;32776;-75
2021/05/21 07:01:12;;;;;;;;;;;;;;;17.92;51.72;100032.81;4411014;32;34367;-75
2021/05/21 07:03:39;;;;;;;;;;;;;;;18.05;53.75;100027.63;4409761;32;34572;-76
2021/05/21 07:06:07;;;;;;;;;;;;;;;18.70;50.97;100028.47;4427967;32;33108;-75
2021/05/21 07:08:34;;;;;;;;;;;;;;;18.64;50.27;100027.37;4414747;32;32574;-75
2021/05/21 07:11:02;;;;;;;;;;;;;;;18.92;47.73;100028.31;4426426;32;33298;-76
2021/05/21 07:13:30;;;;;;;;;;;;;;;18.92;47.70;100030.16;4412913;32;35050;-75
2021/05/21 07:15:58;;;;;;;;;;;;;;;19.10;47.12;100017.91;4414193;32;34190;-75
2021/05/21 07:18:26;;;;;;;;;;;;;;;19.23;46.90;100019.91;4411977;32;32847;-75
2021/05/21 07:20:59;;;;;;;;;;;;;;;19.06;46.71;100023.91;4414389;32;34848;-75
2021/05/21 07:23:27;;;;;;;;;;;;;;;19.24;47.07;100018.91;4414869;32;35401;-75
2021/05/21 07:25:54;;;;;;;;;;;;;;;18.55;48.94;100023.13;4423330;32;34474;-75
2021/05/21 07:28:24;;;;;;;;;;;;;;;19.09;48.08;100023.50;4411136;32;33072;-75
2021/05/21 07:30:51;;;;;;;;;;;;;;;19.05;47.42;100014.09;4397742;32;32421;-75
2021/05/21 07:33:19;;;;;;;;;;;;;;;19.49;46.42;100010.19;4424265;32;34429;-75
2021/05/21 07:35:47;;;;;;;;;;;;;;;19.56;46.86;100011.06;4410813;32;34598;-74
2021/05/21 07:38:15;;;;;;;;;;;;;;;20.01;45.86;100007.84;4423242;32;33079;-75
2021/05/21 07:40:43;;;;;;;;;;;;;;;19.67;39.96;100017.78;4424181;32;34001;-75
2021/05/21 07:43:15;;;;;;;;;;;;;;;19.85;39.12;100010.88;4410604;32;34828;-74
2021/05/21 07:45:42;;;;;;;;;;;;;;;19.81;39.32;100016.87;4424981;32;34157;-75
2021/05/21 07:48:10;;;;;;;;;;;;;;;20.00;40.99;100008.88;4426051;32;32545;-75
2021/05/21 07:50:40;;;;;;;;;;;;;;;19.99;40.60;100006.37;4411085;32;33316;-75
2021/05/21 07:53:09;;;;;;;;;;;;;;;19.80;42.34;100018.72;4414063;32;34324;-75
2021/05/21 07:55:38;;;;;;;;;;;;;;;19.91;40.74;100014.66;4429241;32;35331;-75
2021/05/21 07:58:07;;;;;;;;;;;;;;;19.53;41.70;100014.16;4413872;32;34096;-75
2021/05/21 08:00:35;;;;;;;;;;;;;;;19.70;40.94;100014.69;4427361;32;35633;-74
2021/05/21 08:03:03;;;;;;;;;;;;;;;19.85;42.48;100010.03;4413261;32;34350;-75
2021/05/21 08:05:30;;;;;;;;;;;;;;;19.84;42.26;100006.50;4429521;32;34784;-75
2021/05/21 08:08:21;;;;;;;;;;;;;;;19.58;41.87;100019.81;4417600;32;32017;-75
2021/05/21 08:10:49;;;;;;;;;;;;;;;19.79;41.35;100021.59;4414418;32;34351;-75
2021/05/21 08:13:17;;;;;;;;;;;;;;;20.11;40.22;100011.03;4409817;32;33389;-74
2021/05/21 08:15:45;;;;;;;;;;;;;;;20.03;40.59;100013.03;4428049;32;35061;-75
2021/05/21 08:18:12;;;;;;;;;;;;;;;19.62;42.15;100006.78;4427111;32;32758;-75
2021/05/21 08:20:42;;;;;;;;;;;;;;;19.55;42.66;100005.88;4414265;32;33660;-74
2021/05/21 08:23:14;;;;;;;;;;;;;;;19.78;42.68;99999.19;4414058;32;35226;-74
2021/05/21 08:25:42;;;;;;;;;;;;;;;19.84;41.98;99998.41;4429001;32;34157;-74
2021/05/21 08:28:10;;;;;;;;;;;;;;;19.79;40.45;100003.56;4427985;32;33484;-74
2021/05/21 08:30:38;;;;;;;;;;;;;;;20.20;41.16;99995.50;4423039;32;35351;-74
2021/05/21 08:33:06;;;;;;;;;;;;;;;20.32;42.59;100004.69;4425524;32;35533;-74
2021/05/21 08:35:34;;;;;;;;;;;;;;;20.47;42.13;99995.41;4424573;32;32431;-74
2021/05/21 08:38:02;;;;;;;;;;;;;;;20.37;40.52;100019.28;4428360;32;32677;-74
2021/05/21 08:40:36;;;;;;;;;;;;;;;20.65;40.23;100001.94;4427302;32;34704;-74
2021/05/21 08:43:07;;;;;;;;;;;;;;;20.40;42.96;100005.38;4414071;32;35927;-73
2021/05/21 08:45:35;;;;;;;;;;;;;;;20.02;42.08;99990.59;4427677;32;34711;-74
2021/05/21 08:48:02;;;;;;;;;;;;;;;20.23;41.12;100000.50;4426824;32;33479;-73
2021/05/21 08:50:30;;;;;;;;;;;;;;;20.58;38.57;99984.00;4412551;32;32712;-73
2021/05/21 08:52:58;;;;;;;;;;;;;;;20.22;41.36;99986.19;4428277;32;34680;-73
2021/05/21 08:55:25;;;;;;;;;;;;;;;19.88;39.35;99982.62;4413478;32;35180;-73
2021/05/21 08:57:53;;;;;;;;;;;;;;;20.53;40.98;99976.50;4400675;32;32347;-73
2021/05/21 09:00:21;;;;;;;;;;;;;;;21.00;41.24;99968.34;4412328;32;34692;-73
2021/05/21 09:02:48;;;;;;;;;;;;;;;20.88;39.21;99967.25;4412239;32;34906;-73
2021/05/21 09:05:16;;;;;;;;;;;;;;;20.90;41.12;99957.06;4413886;32;34341;-75
2021/05/21 09:07:43;;;;;;;;;;;;;;;20.28;39.36;99962.91;4426839;32;32441;-74
2021/05/21 09:10:15;;;;;;;;;;;;;;;20.09;40.18;99950.97;4413091;32;34077;-74
2021/05/21 09:12:47;;;;;;;;;;;;;;;20.50;39.52;99962.59;4426666;32;34470;-73
2021/05/21 09:15:22;;;;;;;;;;;;;;;20.87;38.75;99964.78;4425526;32;34031;-74
2021/05/21 09:17:57;;;;;;;;;;;;;;;21.14;39.02;99963.75;4411424;32;34192;-73
2021/05/21 09:20:26;;;;;;;;;;;;;;;21.16;37.85;99958.97;4410292;32;34315;-74
2021/05/21 09:23:01;;;;;;;;;;;;;;;20.88;36.88;99958.34;4413041;32;34522;-73
2021/05/21 09:25:48;;;;;;;;;;;;;;;20.71;38.68;99957.84;4397399;32;34155;-74
2021/05/21 09:28:35;;;;;;;;;;;;;;;20.71;37.21;99960.53;4409816;32;33078;-74
2021/05/21 09:31:15;;;;;;;;;;;;;;;20.51;38.24;99956.13;4426067;32;32998;-74
2021/05/21 09:33:48;;;;;;;;;;;;;;;20.20;38.80;99953.09;4412203;32;34994;-75
2021/05/21 09:36:28;;;;;;;;;;;;;;;20.69;36.69;99943.69;4426423;32;34175;-74
2021/05/21 09:38:57;;;;;;;;;;;;;;;20.71;37.51;99933.50;4427259;32;33913;-74
2021/05/21 09:41:46;;;;;;;;;;;;;;;20.68;37.76;99938.50;4426474;32;34140;-75
2021/05/21 09:44:14;;;;;;;;;;;;;;;21.12;39.70;99945.03;4427483;32;35057;-74
2021/05/21 09:46:42;;;;;;;;;;;;;;;21.24;41.48;99940.66;4413639;32;35323;-74
2021/05/21 09:49:29;;;;;;;;;;;;;;;21.38;38.51;99938.78;4407503;32;33058;-74
2021/05/21 09:51:57;;;;;;;;;;;;;;;21.80;38.25;99936.44;4430040;32;33511;-74
2021/05/21 09:54:26;;;;;;;;;;;;;;;21.45;37.76;99928.78;4411947;32;34815;-75
2021/05/21 09:57:03;;;;;;;;;;;;;;;21.62;37.46;99941.66;4410415;32;33778;-74
2021/05/21 09:59:41;;;;;;;;;;;;;;;21.63;37.24;99929.75;4399470;32;31773;-73
2021/05/21 10:02:19;;;;;;;;;;;;;;;21.38;40.48;99941.47;4409853;32;33299;-75
2021/05/21 10:04:55;;;;;;;;;;;;;;;21.67;36.27;99930.22;4403469;32;34652;-74
2021/05/21 10:07:22;;;;;;;;;;;;;;;21.64;35.91;99923.34;4429547;32;33754;-75
2021/05/21 10:09:50;;;;;;;;;;;;;;;21.68;38.27;99930.00;4414101;32;32513;-75
2021/05/21 10:12:17;;;;;;;;;;;;;;;21.98;37.93;99916.78;4415687;32;34749;-74
2021/05/21 10:14:48;;;;;;;;;;;;;;;21.59;37.34;99922.28;4411893;32;34521;-74
2021/05/21 10:17:17;;;;;;;;;;;;;;;21.95;37.45;99920.75;4411204;32;34312;-75
2021/05/21 10:19:47;;;;;;;;;;;;;;;22.21;37.80;99907.13;4411416;32;33065;-75
2021/05/21 10:22:22;;;;;;;;;;;;;;;22.28;38.28;99913.31;4412570;32;33131;-75
2021/05/21 10:24:50;;;;;;;;;;;;;;;22.48;35.16;99908.63;4387440;32;36050;-75
2021/05/21 10:27:20;;;;;;;;;;;;;;;22.87;35.36;99904.84;4398543;32;35556;-75
2021/05/21 10:29:48;;;;;;;;;;;;;;;23.08;35.30;99904.47;4399929;32;32991;-74
2021/05/21 10:32:15;;;;;;;;;;;;;;;22.68;34.62;99884.13;4411972;32;34308;-74
2021/05/21 10:34:43;;;;;;;;;;;;;;;22.92;34.74;99891.47;4400229;32;36856;-74
2021/05/21 10:37:35;;;;;;;;;;;;;;;23.21;35.66;99894.34;4388432;32;34538;-74
2021/05/21 10:40:22;;;;;;;;;;;;;;;23.32;34.70;99884.66;4401963;32;32209;-74
2021/05/21 10:43:17;;;;;;;;;;;;;;;23.98;35.62;99881.03;4413548;32;34924;-75
2021/05/21 10:45:53;;;;;;;;;;;;;;;23.89;32.84;99871.53;4400387;32;36106;-75
2021/05/21 10:48:26;;;;;;;;;;;;;;;23.84;33.20;99868.62;4387110;32;34097;-75
2021/05/21 10:51:09;;;;;;;;;;;;;;;24.63;33.43;99853.75;4411696;32;33154;-75
2021/05/21 10:53:43;;;;;;;;;;;;;;;24.67;31.23;99854.94;4408328;32;33788;-75
2021/05/21 10:56:10;;;;;;;;;;;;;;;24.18;33.35;99868.81;4398644;32;34821;-75
2021/05/21 10:58:44;;;;;;;;;;;;;;;24.60;32.30;99851.50;4413388;32;35086;-75
2021/05/21 11:01:12;;;;;;;;;;;;;;;24.96;32.14;99856.78;4398960;32;32225;-74
2021/05/21 11:03:56;;;;;;;;;;;;;;;24.34;31.27;99856.47;4397047;32;34648;-75
2021/05/21 11:06:24;;;;;;;;;;;;;;;24.28;30.96;99847.34;4413865;32;35362;-74
2021/05/21 11:09:01;;;;;;;;;;;;;;;24.49;31.54;99838.69;4398553;32;34642;-75
2021/05/21 11:11:48;;;;;;;;;;;;;;;25.12;31.84;99834.28;4413420;32;33043;-75
2021/05/21 11:14:31;;;;;;;;;;;;;;;25.05;30.85;99830.03;4412178;32;35649;-74
2021/05/21 11:17:06;;;;;;;;;;;;;;;25.53;32.74;99833.34;4391483;32;35591;-75
2021/05/21 11:19:34;;;;;;;;;;;;;;;25.78;30.54;99812.09;4410500;32;36191;-74
2021/05/21 11:22:23;;;;;;;;;;;;;;;25.90;28.69;99812.91;4412939;32;32832;-75
2021/05/21 11:24:56;;;;;;;;;;;;;;;25.62;30.78;99797.34;4395438;32;32399;-76
2021/05/21 11:27:27;;;;;;;;;;;;;;;25.25;30.26;99815.03;4412121;32;34762;-75
2021/05/21 11:29:55;;;;;;;;;;;;;;;25.18;31.11;99813.44;4399222;32;34150;-76
2021/05/21 11:32:24;;;;;;;;;;;;;;;25.47;32.50;99812.53;4412418;32;32862;-75
2021/05/21 11:34:52;;;;;;;;;;;;;;;25.51;30.77;99805.53;4393698;32;32233;-75
2021/05/21 11:37:27;;;;;;;;;;;;;;;26.52;29.21;99801.84;4383910;32;34571;-75
2021/05/21 11:39:55;;;;;;;;;;;;;;;25.78;28.87;99793.03;4399002;32;34243;-75
2021/05/21 11:42:31;;;;;;;;;;;;;;;26.49;29.70;99790.56;4411742;32;33769;-76
2021/05/21 11:44:59;;;;;;;;;;;;;;;26.46;29.11;99797.38;4411887;32;33808;-75
2021/05/21 11:47:40;;;;;;;;;;;;;;;26.45;29.11;99790.25;4410740;32;35869;-76
2021/05/21 11:50:30;;;;;;;;;;;;;;;25.78;30.96;99793.03;4386374;32;34806;-76
2021/05/21 11:53:19;;;;;;;;;;;;;;;25.42;29.52;99787.91;4396227;32;32653;-75
2021/05/21 11:55:49;;;;;;;;;;;;;;;25.47;29.78;99775.22;4412959;32;34193;-75
2021/05/21 11:58:21;;;;;;;;;;;;;;;26.44;29.25;99777.69;4411491;32;35694;-74
2021/05/21 12:00:49;;;;;;;;;;;;;;;26.38;30.42;99778.66;4408029;32;34707;-75
2021/05/21 12:03:19;;;;;;;;;;;;;;;26.97;29.88;99774.50;4388696;32;33807;-76
2021/05/21 12:05:47;;;;;;;;;;;;;;;26.75;28.12;99790.78;4410437;32;33919;-75
2021/05/21 12:08:17;;;;;;;;;;;;;;;26.55;29.72;99781.44;4397006;32;34741;-75
2021/05/21 12:10:54;;;;;;;;;;;;;;;25.82;29.94;99767.75;4410489;32;33969;-75
2021/05/21 12:13:22;;;;;;;;;;;;;;;25.79;32.01;99772.87;4394903;32;31439;-75
2021/05/21 12:15:50;;;;;;;;;;;;;;;25.81;31.58;99771.56;4389688;32;34605;-74
2021/05/21 12:18:18;;;;;;;;;;;;;;;26.34;30.37;99774.75;4396609;32;34529;-76
2021/05/21 12:20:51;;;;;;;;;;;;;;;25.46;30.23;99767.25;4412264;32;34285;-72
2021/05/21 12:23:19;;;;;;;;;;;;;;;25.96;30.89;99773.78;4384034;32;33829;-74
2021/05/21 12:25:47;;;;;;;;;;;;;;;25.57;30.34;99771.87;4395774;32;33399;-75
2021/05/21 12:28:14;;;;;;;;;;;;;;;26.49;30.87;99772.31;4410297;32;34813;-75
2021/05/21 12:30:48;;;;;;;;;;;;;;;26.16;30.90;99765.97;4399400;32;34067;-74
2021/05/21 12:33:18;;;;;;;;;;;;;;;26.02;30.38;99767.34;4385889;32;32555;-75
2021/05/21 12:35:45;;;;;;;;;;;;;;;26.30;32.42;99768.16;4395534;32;32815;-74
2021/05/21 12:38:19;;;;;;;;;;;;;;;25.47;30.79;99766.22;4395407;32;34918;-74
2021/05/21 12:40:50;;;;;;;;;;;;;;;25.31;31.84;99770.50;4411095;32;34221;-76
2021/05/21 12:43:18;;;;;;;;;;;;;;;25.35;31.35;99762.69;4412723;32;32954;-75
2021/05/21 12:46:01;;;;;;;;;;;;;;;24.67;32.45;99764.34;4394195;32;33874;-74
2021/05/21 12:48:32;;;;;;;;;;;;;;;24.71;32.95;99766.38;4411190;32;35589;-74
2021/05/21 12:51:09;;;;;;;;;;;;;;;24.16;34.39;99762.19;4410284;32;33855;-74
2021/05/21 12:53:38;;;;;;;;;;;;;;;24.28;33.77;99748.66;4382824;32;33019;-74